Time;durP1;ratioP1;P1;durP2;ratioP2;P2;SDS_P1;SDS_P2;PMS_P1;PMS_P2;Temp;Humidity;BMP_temperature;BMP_pressure;BME280_temperature;BME280_humidity;BME280_pressure;Samples;Min_cycle;Max_cycle;Signal;HPM_P1;HPM_P2
2024/02/06 00:00:01;;;;;;;17.90;3.45;;;-1.40;99.90;;;;;;5073665;28;20047;-79
2024/02/06 00:02:27;;;;;;;6.53;3.45;;;-1.40;99.90;;;;;;5073701;28;20381;-80
2024/02/06 00:04:53;;;;;;;9.73;3.60;;;-1.40;99.90;;;;;;5072242;28;20025;-80
2024/02/06 00:07:19;;;;;;;6.60;3.55;;;-1.40;99.90;;;;;;5073253;28;20026;-78
2024/02/06 00:09:45;;;;;;;7.75;2.83;;;-1.40;99.90;;;;;;5072245;28;20539;-79
2024/02/06 00:12:10;;;;;;;10.85;3.58;;;-1.40;99.90;;;;;;5073677;28;20051;-79
2024/02/06 00:14:36;;;;;;;9.98;4.22;;;-1.40;99.90;;;;;;5067938;28;20099;-77
2024/02/06 00:17:02;;;;;;;7.53;4.13;;;-1.40;99.90;;;;;;5071706;28;20029;-78
2024/02/06 00:19:28;;;;;;;7.50;3.35;;;-1.40;99.90;;;;;;5072186;28;20029;-76
2024/02/06 00:21:54;;;;;;;8.20;3.80;;;-1.40;99.90;;;;;;5073358;28;20032;-77
2024/02/06 00:24:21;;;;;;;9.02;4.15;;;-1.50;99.90;;;;;;5070015;28;20488;-79
2024/02/06 00:26:47;;;;;;;5.85;3.78;;;-1.50;99.90;;;;;;5073027;28;20088;-77
2024/02/06 00:29:13;;;;;;;14.23;4.30;;;-1.50;99.90;;;;;;5072224;28;20028;-76
2024/02/06 00:31:38;;;;;;;11.75;4.40;;;-1.50;99.90;;;;;;5072716;28;20508;-78
2024/02/06 00:34:04;;;;;;;7.03;3.45;;;-1.50;99.90;;;;;;5074834;28;20021;-78
2024/02/06 00:36:30;;;;;;;8.63;4.13;;;-1.50;99.90;;;;;;5079589;28;20016;-77
2024/02/06 00:38:56;;;;;;;6.70;3.65;;;-1.50;99.90;;;;;;5077261;28;20021;-77
2024/02/06 00:41:22;;;;;;;10.95;3.70;;;-1.50;99.90;;;;;;5073232;28;20023;-78
2024/02/06 00:43:48;;;;;;;7.45;3.90;;;-1.50;99.90;;;;;;5072482;28;20025;-77
2024/02/06 00:46:19;;;;;;;10.40;4.25;;;-1.50;99.90;;;;;;5071824;28;20063;-79
2024/02/06 00:48:45;;;;;;;7.47;4.47;;;-1.60;99.90;;;;;;5072929;28;20028;-77
2024/02/06 00:51:11;;;;;;;8.93;4.63;;;-1.60;99.90;;;;;;5071662;28;20023;-79
2024/02/06 00:53:37;;;;;;;7.15;3.83;;;-1.50;99.90;;;;;;5078317;28;20028;-78
2024/02/06 00:56:06;;;;;;;14.50;5.20;;;-1.50;99.90;;;;;;5085368;28;20088;-78
2024/02/06 00:58:32;;;;;;;7.22;4.22;;;-1.50;99.90;;;;;;5073013;28;20038;-78
2024/02/06 01:00:58;;;;;;;6.88;3.78;;;-1.50;99.90;;;;;;5073771;28;20028;-79
2024/02/06 01:03:24;;;;;;;10.85;3.50;;;-1.50;99.90;;;;;;5072889;28;20017;-80
2024/02/06 01:05:50;;;;;;;6.63;3.60;;;-1.50;99.90;;;;;;5071384;28;20393;-79
2024/02/06 01:08:15;;;;;;;8.27;4.18;;;-1.50;99.90;;;;;;5070103;28;20040;-78
2024/02/06 01:10:41;;;;;;;5.78;4.10;;;-1.50;99.90;;;;;;5071993;28;20039;-79
2024/02/06 01:13:07;;;;;;;9.82;3.55;;;-1.40;99.90;;;;;;5070744;28;20078;-77
2024/02/06 01:15:33;;;;;;;7.50;4.22;;;-1.40;99.90;;;;;;5064167;28;20070;-80
2024/02/06 01:17:59;;;;;;;17.17;4.65;;;-1.50;99.90;;;;;;5072222;28;20036;-79
2024/02/06 01:20:24;;;;;;;7.18;4.07;;;-1.40;99.90;;;;;;5065025;28;20078;-78
2024/02/06 01:22:50;;;;;;;7.95;4.32;;;-1.50;99.90;;;;;;5072384;28;20095;-78
2024/02/06 01:25:16;;;;;;;5.65;3.38;;;-1.50;99.90;;;;;;5071788;28;20031;-77
2024/02/06 01:27:42;;;;;;;10.93;4.22;;;-1.50;99.90;;;;;;5069517;28;20032;-80
2024/02/06 01:30:08;;;;;;;12.60;4.00;;;-1.40;99.90;;;;;;5071914;28;20478;-79
2024/02/06 01:32:34;;;;;;;6.72;4.03;;;-1.50;99.90;;;;;;5072468;28;20020;-80
2024/02/06 01:35:00;;;;;;;8.65;3.92;;;-1.50;99.90;;;;;;5071971;28;20120;-77
2024/02/06 01:37:26;;;;;;;5.38;4.55;;;-1.50;99.90;;;;;;5071711;28;20127;-79
2024/02/06 01:39:52;;;;;;;7.38;3.55;;;-1.50;99.90;;;;;;5061740;28;20502;-79
2024/02/06 01:42:17;;;;;;;5.28;3.75;;;-1.50;99.90;;;;;;5071788;28;20021;-78
2024/02/06 01:44:43;;;;;;;7.32;3.88;;;-1.50;99.90;;;;;;5071912;28;20028;-78
2024/02/06 01:47:10;;;;;;;4.18;3.17;;;-1.60;99.90;;;;;;5071870;28;20021;-79
2024/02/06 01:49:36;;;;;;;6.47;4.07;;;-1.60;99.90;;;;;;5071462;28;20024;-78
2024/02/06 01:52:04;;;;;;;5.70;3.30;;;-1.60;99.90;;;;;;5071666;28;20021;-79
2024/02/06 01:54:30;;;;;;;;;;;-1.70;99.90;;;;;;5071163;28;20013;-77
2024/02/06 01:56:55;;;;;;;7.05;3.08;;;-1.70;99.90;;;;;;5071877;28;19912;-77
2024/02/06 01:59:22;;;;;;;6.22;3.80;;;-1.70;99.90;;;;;;5070383;28;20082;-78
2024/02/06 02:01:48;;;;;;;7.75;3.92;;;-1.80;99.90;;;;;;5071478;28;20032;-77
2024/02/06 02:04:15;;;;;;;6.25;3.53;;;-1.80;99.90;;;;;;5063677;28;20028;-80
2024/02/06 02:06:41;;;;;;;6.37;4.67;;;-1.80;99.90;;;;;;5072853;28;20017;-78
2024/02/06 02:09:08;;;;;;;6.97;3.40;;;-1.70;99.90;;;;;;5072416;28;20226;-77
2024/02/06 02:11:35;;;;;;;5.93;3.90;;;-1.70;99.90;;;;;;5071839;28;20028;-77
2024/02/06 02:14:01;;;;;;;11.15;4.00;;;-1.70;99.90;;;;;;5072901;28;20082;-77
2024/02/06 02:16:26;;;;;;;6.72;3.50;;;-1.70;99.90;;;;;;5071997;28;20436;-77
2024/02/06 02:18:53;;;;;;;8.88;3.92;;;-1.70;99.90;;;;;;5071752;28;20016;-77
2024/02/06 02:21:18;;;;;;;11.75;3.25;;;-1.70;99.90;;;;;;5068491;28;20050;-77
2024/02/06 02:23:45;;;;;;;5.85;3.42;;;-1.70;99.90;;;;;;5071457;28;20029;-77
2024/02/06 02:26:13;;;;;;;7.88;3.72;;;-1.70;99.90;;;;;;5068612;28;20025;-78
2024/02/06 02:28:41;;;;;;;8.50;2.88;;;-1.70;99.90;;;;;;5070160;28;20039;-78
2024/02/06 02:31:08;;;;;;;6.85;4.05;;;-1.70;99.90;;;;;;5071838;28;20074;-79
2024/02/06 02:33:35;;;;;;;11.65;4.28;;;-1.70;99.90;;;;;;5071741;28;20078;-77
2024/02/06 02:36:11;;;;;;;8.10;3.05;;;-1.60;99.90;;;;;;5063013;28;20029;-79
2024/02/06 02:38:38;;;;;;;8.10;3.80;;;-1.60;99.90;;;;;;5066628;28;20066;-79
2024/02/06 02:41:04;;;;;;;4.47;2.70;;;-1.60;99.90;;;;;;5071109;28;20024;-78
2024/02/06 02:43:30;;;;;;;6.43;4.20;;;-1.60;99.90;;;;;;5070510;28;20036;-79
2024/02/06 02:45:56;;;;;;;7.32;3.13;;;-1.60;99.90;;;;;;5072064;28;20063;-78
2024/02/06 02:48:22;;;;;;;4.95;2.92;;;-1.60;99.90;;;;;;5071162;28;20444;-78
2024/02/06 02:50:48;;;;;;;9.10;3.08;;;-1.70;99.90;;;;;;5071121;28;20158;-78
2024/02/06 02:53:14;;;;;;;6.35;3.03;;;-1.70;99.90;;;;;;5070200;28;20111;-79
2024/02/06 02:55:40;;;;;;;6.75;3.65;;;-1.60;99.90;;;;;;5071189;28;20036;-78
2024/02/06 02:58:05;;;;;;;5.43;2.65;;;-1.60;99.90;;;;;;5069567;28;20028;-78
2024/02/06 03:00:33;;;;;;;7.78;2.83;;;-1.60;99.90;;;;;;5069915;28;20394;-78
2024/02/06 03:02:59;;;;;;;5.20;3.60;;;-1.60;99.90;;;;;;5062752;28;20025;-77
2024/02/06 03:05:25;;;;;;;7.05;2.95;;;-1.50;99.90;;;;;;5072574;28;20027;-77
2024/02/06 03:07:50;;;;;;;10.20;3.65;;;-1.50;99.90;;;;;;5073455;28;20045;-77
2024/02/06 03:10:16;;;;;;;4.05;2.75;;;-1.50;99.90;;;;;;5070190;28;20589;-77
2024/02/06 03:12:42;;;;;;;7.03;3.67;;;-1.50;99.90;;;;;;5074667;28;20060;-78
2024/02/06 03:15:08;;;;;;;5.25;3.42;;;-1.50;99.90;;;;;;5074420;28;20016;-78
2024/02/06 03:17:34;;;;;;;4.85;2.97;;;-1.50;99.90;;;;;;5065556;28;20029;-78
2024/02/06 03:20:01;;;;;;;6.32;3.42;;;-1.50;99.90;;;;;;5066752;28;20070;-77
2024/02/06 03:22:32;;;;;;;6.10;3.00;;;-1.60;99.90;;;;;;5070154;28;20421;-79
2024/02/06 03:24:58;;;;;;;4.90;3.17;;;-1.60;99.90;;;;;;5071433;28;20070;-79
2024/02/06 03:27:24;;;;;;;5.47;3.57;;;-1.60;99.90;;;;;;5065804;28;20012;-79
2024/02/06 03:29:51;;;;;;;6.30;3.38;;;-1.60;99.90;;;;;;5074743;28;20298;-79
2024/02/06 03:32:18;;;;;;;4.97;2.80;;;-1.60;99.90;;;;;;5069203;28;20040;-78
2024/02/06 03:34:43;;;;;;;9.07;3.67;;;-1.60;99.90;;;;;;5075580;28;20021;-79
2024/02/06 03:37:09;;;;;;;5.45;3.55;;;-1.60;99.90;;;;;;5078288;28;20836;-79
2024/02/06 03:39:35;;;;;;;7.55;4.03;;;-1.60;99.90;;;;;;5062086;28;20032;-79
2024/02/06 03:42:01;;;;;;;7.10;4.82;;;-1.60;99.90;;;;;;5076063;28;20433;-80
2024/02/06 03:44:27;;;;;;;7.03;3.38;;;-1.60;99.90;;;;;;5073737;28;20066;-78
2024/02/06 03:46:52;;;;;;;6.88;4.50;;;-1.60;99.90;;;;;;5073893;28;20024;-78
2024/02/06 03:49:18;;;;;;;6.18;3.58;;;-1.60;99.90;;;;;;5072499;28;20541;-79
2024/02/06 03:51:44;;;;;;;7.20;4.40;;;-1.60;99.90;;;;;;5073322;28;20025;-79
2024/02/06 03:54:10;;;;;;;8.20;4.20;;;-1.70;99.90;;;;;;5069017;28;20095;-78
2024/02/06 03:56:35;;;;;;;9.48;4.68;;;-1.60;99.90;;;;;;5073854;28;20029;-79
2024/02/06 03:59:01;;;;;;;6.78;4.00;;;-1.70;99.90;;;;;;5073691;28;20024;-79
2024/02/06 04:01:27;;;;;;;5.88;4.20;;;-1.70;99.90;;;;;;5074116;28;20039;-78
2024/02/06 04:03:52;;;;;;;7.32;4.18;;;-1.60;99.90;;;;;;5074456;28;20465;-79
2024/02/06 04:06:19;;;;;;;7.55;4.00;;;-1.60;99.90;;;;;;5074587;28;20021;-79
2024/02/06 04:08:45;;;;;;;8.23;4.47;;;-1.50;99.90;;;;;;5074603;28;20119;-78
2024/02/06 04:11:12;;;;;;;10.90;5.57;;;-1.50;99.90;;;;;;5073622;28;20104;-79
2024/02/06 04:13:40;;;;;;;8.18;4.45;;;-1.40;99.90;;;;;;5071929;28;20008;-80
2024/02/06 04:16:07;;;;;;;7.93;4.50;;;-1.40;99.90;;;;;;5072680;28;20032;-79
2024/02/06 04:18:37;;;;;;;7.80;4.68;;;-1.30;99.90;;;;;;5073304;28;20056;-78
2024/02/06 04:21:02;;;;;;;14.43;4.95;;;-1.30;99.90;;;;;;5073702;28;20028;-78
2024/02/06 04:23:28;;;;;;;7.47;4.82;;;-1.30;99.90;;;;;;5071550;28;20024;-79
2024/02/06 04:25:54;;;;;;;9.25;4.75;;;-1.20;99.90;;;;;;5073441;28;20063;-78
2024/02/06 04:28:20;;;;;;;10.32;4.93;;;-1.20;99.90;;;;;;5073469;28;20023;-79
2024/02/06 04:30:46;;;;;;;6.88;4.07;;;-1.20;99.90;;;;;;5072108;28;20440;-78
2024/02/06 04:33:13;;;;;;;7.07;5.03;;;-1.20;99.90;;;;;;5071575;28;20052;-78
2024/02/06 04:35:59;;;;;;;14.07;5.88;;;-1.20;99.90;;;;;;5064414;28;20054;-81
2024/02/06 04:38:25;;;;;;;9.27;4.82;;;-1.20;99.90;;;;;;5073589;28;20044;-79
2024/02/06 04:40:51;;;;;;;7.88;5.22;;;-1.20;99.90;;;;;;5072359;28;20021;-79
2024/02/06 04:43:17;;;;;;;9.65;4.72;;;-1.20;99.90;;;;;;5067529;28;20097;-78
2024/02/06 04:45:43;;;;;;;14.13;6.03;;;-1.10;99.90;;;;;;5072963;28;20027;-78
2024/02/06 04:48:09;;;;;;;9.00;4.47;;;-1.10;99.90;;;;;;5072602;28;20096;-78
2024/02/06 04:50:35;;;;;;;8.27;4.97;;;-1.10;99.90;;;;;;5072647;28;20398;-79
2024/02/06 04:53:03;;;;;;;13.25;5.55;;;-1.20;99.90;;;;;;5072700;28;20073;-78
2024/02/06 04:55:32;;;;;;;9.13;4.70;;;-1.20;99.90;;;;;;5072569;28;20013;-77
2024/02/06 04:58:00;;;;;;;6.90;4.32;;;-1.20;99.90;;;;;;5072453;28;20473;-79
2024/02/06 05:00:26;;;;;;;10.30;4.43;;;-1.30;99.90;;;;;;5074124;28;20478;-80
2024/02/06 05:02:52;;;;;;;12.27;5.97;;;-1.30;99.90;;;;;;5072787;28;20021;-79
2024/02/06 05:05:17;;;;;;;10.05;5.13;;;-1.40;99.90;;;;;;5072601;28;20021;-78
2024/02/06 05:07:43;;;;;;;10.70;5.10;;;-1.40;99.90;;;;;;5071172;28;20036;-78
2024/02/06 05:10:12;;;;;;;6.65;4.18;;;-1.40;99.90;;;;;;5071801;28;20025;-79
2024/02/06 05:12:38;;;;;;;11.63;4.65;;;-1.30;99.90;;;;;;5062645;28;20033;-78
2024/02/06 05:15:04;;;;;;;4.57;2.85;;;-1.30;99.90;;;;;;5069660;28;20083;-80
2024/02/06 05:17:33;;;;;;;12.98;4.63;;;-1.30;99.90;;;;;;5072795;28;20033;-80
2024/02/06 05:19:58;;;;;;;6.13;3.65;;;-1.30;99.90;;;;;;5072438;28;20031;-81
2024/02/06 05:22:24;;;;;;;6.63;3.38;;;-1.30;99.90;;;;;;5058192;28;20490;-79
2024/02/06 05:24:50;;;;;;;7.38;4.13;;;-1.30;99.90;;;;;;5072005;28;20096;-78
2024/02/06 05:27:16;;;;;;;7.80;4.25;;;-1.30;99.90;;;;;;5070616;28;20385;-80
2024/02/06 05:29:41;;;;;;;10.75;4.00;;;-1.30;99.90;;;;;;5071902;28;20021;-77
2024/02/06 05:32:08;;;;;;;5.15;3.55;;;-1.30;99.90;;;;;;5072179;28;20029;-78
2024/02/06 05:34:34;;;;;;;7.15;4.32;;;-1.40;99.90;;;;;;5069561;28;20374;-81
2024/02/06 05:37:00;;;;;;;8.20;4.25;;;-1.40;99.90;;;;;;5069702;28;20425;-81
2024/02/06 05:39:26;;;;;;;6.90;4.03;;;-1.40;99.90;;;;;;5070546;28;20132;-79
2024/02/06 05:41:52;;;;;;;4.88;3.55;;;-1.50;99.90;;;;;;5071705;28;20029;-80
2024/02/06 05:44:18;;;;;;;5.63;3.63;;;-1.50;99.90;;;;;;5066775;28;20052;-78
2024/02/06 05:46:44;;;;;;;7.30;4.35;;;-1.50;99.90;;;;;;5070423;28;20020;-79
2024/02/06 05:49:09;;;;;;;9.43;4.22;;;-1.50;99.90;;;;;;5071831;28;20393;-79
2024/02/06 05:51:35;;;;;;;5.68;2.85;;;-1.40;99.90;;;;;;5072049;28;20013;-80
2024/02/06 05:54:01;;;;;;;8.02;5.25;;;-1.50;99.90;;;;;;5071625;28;20017;-80
2024/02/06 05:56:27;;;;;;;6.65;3.30;;;-1.40;99.90;;;;;;5066839;28;20548;-79
2024/02/06 05:58:53;;;;;;;9.43;4.25;;;-1.40;99.90;;;;;;5072793;28;20389;-81
2024/02/06 06:01:19;;;;;;;11.55;3.85;;;-1.30;99.90;;;;;;5072824;28;20020;-82
2024/02/06 06:03:44;;;;;;;5.70;3.88;;;-1.30;99.90;;;;;;5073474;28;20541;-77
2024/02/06 06:06:10;;;;;;;5.82;2.92;;;-1.40;99.90;;;;;;5064840;28;20481;-79
2024/02/06 06:08:36;;;;;;;7.50;3.50;;;-1.30;99.90;;;;;;5060850;28;20489;-79
2024/02/06 06:11:03;;;;;;;8.82;3.97;;;-1.30;99.90;;;;;;5071724;28;20048;-76
2024/02/06 06:13:29;;;;;;;6.38;3.15;;;-1.20;99.90;;;;;;5071054;28;20413;-80
2024/02/06 06:15:55;;;;;;;6.80;3.22;;;-1.20;99.90;;;;;;5073387;28;20020;-83
2024/02/06 06:18:21;;;;;;;8.02;3.40;;;-1.20;99.90;;;;;;5071796;28;20033;-81
2024/02/06 06:20:47;;;;;;;5.40;3.60;;;-1.20;99.90;;;;;;5070155;28;20035;-81
2024/02/06 06:23:13;;;;;;;5.00;2.42;;;-1.20;99.90;;;;;;5073109;28;20074;-81
2024/02/06 06:25:39;;;;;;;5.18;2.95;;;-1.20;99.90;;;;;;5072119;28;20095;-81
2024/02/06 06:28:07;;;;;;;6.25;3.05;;;-1.20;99.90;;;;;;5073344;28;20131;-82
2024/02/06 06:30:33;;;;;;;8.05;3.05;;;-1.20;99.90;;;;;;5070905;28;20028;-80
2024/02/06 06:32:59;;;;;;;5.43;3.03;;;-1.10;99.90;;;;;;5071693;28;20016;-80
2024/02/06 06:35:25;;;;;;;9.18;3.42;;;-1.10;99.90;;;;;;5071884;28;20032;-80
2024/02/06 06:37:51;;;;;;;7.80;3.05;;;-1.10;99.90;;;;;;5071940;28;20036;-82
2024/02/06 06:40:17;;;;;;;6.70;3.50;;;-0.90;99.90;;;;;;5075716;28;20028;-81
2024/02/06 06:42:43;;;;;;;4.32;1.98;;;-0.80;99.90;;;;;;5076761;28;20029;-81
2024/02/06 06:45:09;;;;;;;5.97;3.30;;;-0.80;99.90;;;;;;5080498;28;20090;-80
2024/02/06 06:47:35;;;;;;;3.42;2.05;;;-0.80;99.90;;;;;;5075585;28;20039;-81
2024/02/06 06:50:01;;;;;;;7.55;3.15;;;-0.80;99.90;;;;;;5074333;28;20179;-81
2024/02/06 06:52:29;;;;;;;8.55;2.42;;;-0.70;99.90;;;;;;5075213;28;20385;-80
2024/02/06 06:54:55;;;;;;;9.45;3.15;;;-0.70;99.90;;;;;;5075102;28;20462;-82
2024/02/06 06:57:21;;;;;;;4.28;2.40;;;-0.60;99.90;;;;;;5073506;28;20028;-82
2024/02/06 06:59:47;;;;;;;6.45;2.78;;;-0.50;99.90;;;;;;5074806;28;20504;-82
2024/02/06 07:02:13;;;;;;;8.10;3.00;;;-0.50;99.90;;;;;;5075084;28;20036;-81
2024/02/06 07:04:39;;;;;;;3.75;1.85;;;-0.40;99.90;;;;;;5061875;28;20021;-81
2024/02/06 07:07:05;;;;;;;6.20;3.10;;;-0.40;99.90;;;;;;5074881;28;20028;-82
2024/02/06 07:09:31;;;;;;;4.38;1.80;;;-0.40;99.90;;;;;;5073925;28;20141;-81
2024/02/06 07:11:57;;;;;;;4.55;2.60;;;-0.50;99.90;;;;;;5074895;28;20028;-81
2024/02/06 07:14:23;;;;;;;5.07;1.93;;;-0.50;99.90;;;;;;5073502;28;20508;-82
2024/02/06 07:16:49;;;;;;;6.82;3.15;;;-0.50;99.90;;;;;;5074538;28;20032;-81
2024/02/06 07:19:15;;;;;;;3.17;2.13;;;-0.60;99.90;;;;;;5074476;28;20056;-82
2024/02/06 07:21:40;;;;;;;8.48;3.35;;;-0.50;99.90;;;;;;5074703;28;20486;-81
2024/02/06 07:24:06;;;;;;;5.00;2.25;;;-0.50;99.90;;;;;;5074828;28;20021;-82
2024/02/06 07:26:32;;;;;;;4.13;2.42;;;-0.50;99.90;;;;;;5073944;28;20394;-81
2024/02/06 07:28:58;;;;;;;5.72;2.58;;;-0.40;99.90;;;;;;5074277;28;20023;-85
2024/02/06 07:31:24;;;;;;;5.38;2.38;;;-0.40;99.90;;;;;;5077029;28;20039;-82
2024/02/06 07:33:50;;;;;;;4.18;2.80;;;-0.50;99.90;;;;;;5075345;28;20021;-81
2024/02/06 07:36:16;;;;;;;8.73;4.00;;;-0.40;99.90;;;;;;5075959;28;20050;-80
2024/02/06 07:38:42;;;;;;;6.90;4.35;;;-0.40;99.90;;;;;;5075917;28;20474;-82
2024/02/06 07:41:08;;;;;;;5.37;2.97;;;-0.40;99.90;;;;;;5077257;28;20020;-82
2024/02/06 07:43:37;;;;;;;5.68;2.67;;;-0.40;99.90;;;;;;5081019;28;20036;-83
2024/02/06 07:46:04;;;;;;;3.90;2.20;;;-0.30;99.90;;;;;;5077405;28;20453;-82
2024/02/06 07:48:31;;;;;;;7.88;2.70;;;-0.30;99.90;;;;;;5074311;28;20036;-81
2024/02/06 07:50:57;;;;;;;5.60;2.55;;;-0.20;99.90;;;;;;5074863;28;20044;-82
2024/02/06 07:53:23;;;;;;;3.83;2.42;;;-0.20;99.90;;;;;;5074569;28;20031;-84
2024/02/06 07:55:49;;;;;;;3.38;2.28;;;-0.20;99.90;;;;;;5075185;28;20379;-83
2024/02/06 07:58:14;;;;;;;8.38;2.05;;;-0.10;99.90;;;;;;5076440;28;20124;-81
2024/02/06 08:00:40;;;;;;;4.07;2.15;;;-0.10;99.90;;;;;;5078603;28;20028;-80
2024/02/06 08:03:06;;;;;;;2.75;1.90;;;-0.10;99.90;;;;;;5072709;28;20039;-83
2024/02/06 08:05:32;;;;;;;6.57;2.50;;;-0.20;99.90;;;;;;5074612;28;20437;-83
2024/02/06 08:07:58;;;;;;;4.82;2.63;;;-0.30;99.90;;;;;;5074561;28;20044;-81
2024/02/06 08:10:24;;;;;;;5.22;2.55;;;-0.30;99.90;;;;;;5074203;28;20444;-82
2024/02/06 08:12:52;;;;;;;2.95;2.35;;;-0.20;99.90;;;;;;5074872;28;20035;-81
2024/02/06 08:15:18;;;;;;;5.57;2.55;;;-0.20;99.90;;;;;;5075010;28;20036;-83
2024/02/06 08:17:50;;;;;;;7.50;3.38;;;-0.20;99.90;;;;;;5077654;28;20039;-81
2024/02/06 08:20:19;;;;;;;4.78;2.78;;;-0.10;99.90;;;;;;5072180;28;20027;-82
2024/02/06 08:22:49;;;;;;;2.67;1.98;;;-0.10;99.90;;;;;;5073923;28;20115;-82
2024/02/06 08:25:17;;;;;;;4.55;2.30;;;0.00;99.90;;;;;;5073607;28;20081;-83
2024/02/06 08:27:46;;;;;;;5.97;3.03;;;-0.10;99.90;;;;;;5073841;28;20111;-82
2024/02/06 08:30:14;;;;;;;6.88;2.47;;;-0.10;99.90;;;;;;5073775;28;20095;-82
2024/02/06 08:32:39;;;;;;;5.28;2.60;;;-0.10;99.90;;;;;;5073439;28;20126;-82
2024/02/06 08:35:06;;;;;;;8.05;3.03;;;-0.10;99.90;;;;;;5073668;28;20108;-81
2024/02/06 08:37:32;;;;;;;7.45;3.30;;;-0.10;99.90;;;;;;5072644;28;20039;-82
2024/02/06 08:39:59;;;;;;;4.88;2.83;;;-0.10;99.90;;;;;;5072951;28;20025;-84
2024/02/06 08:42:25;;;;;;;6.55;3.33;;;-0.10;99.90;;;;;;5074326;28;20024;-80
2024/02/06 08:44:51;;;;;;;4.90;2.55;;;-0.20;99.90;;;;;;5073890;28;20029;-82
2024/02/06 08:47:17;;;;;;;4.88;2.90;;;-0.20;99.90;;;;;;5073579;28;20044;-80
2024/02/06 08:49:42;;;;;;;7.47;3.28;;;-0.20;99.90;;;;;;5073230;28;20025;-80
2024/02/06 08:52:08;;;;;;;6.63;2.83;;;-0.20;99.90;;;;;;5072808;28;20040;-78
2024/02/06 08:54:34;;;;;;;5.72;3.45;;;-0.20;99.90;;;;;;5071328;28;20024;-81
2024/02/06 08:57:00;;;;;;;5.97;3.03;;;-0.20;99.90;;;;;;5071242;28;20501;-80
2024/02/06 08:59:26;;;;;;;4.18;2.75;;;-0.10;99.90;;;;;;5072833;28;20431;-80
2024/02/06 09:01:52;;;;;;;8.18;3.00;;;-0.10;99.90;;;;;;5073610;28;20028;-80
2024/02/06 09:04:18;;;;;;;9.10;3.40;;;-0.10;99.90;;;;;;5074475;28;20025;-81
2024/02/06 09:06:44;;;;;;;5.27;3.03;;;-0.20;99.90;;;;;;5071474;28;20025;-81
2024/02/06 09:09:12;;;;;;;5.03;3.35;;;-0.10;99.90;;;;;;5072521;28;20048;-82
2024/02/06 09:11:39;;;;;;;5.88;3.30;;;-0.10;99.90;;;;;;5072731;28;20012;-82
2024/02/06 09:14:05;;;;;;;5.82;2.20;;;-0.10;99.90;;;;;;5072811;28;20020;-81
2024/02/06 09:16:31;;;;;;;9.00;2.95;;;-0.10;99.90;;;;;;5072813;28;20458;-82
2024/02/06 09:18:57;;;;;;;6.68;2.70;;;-0.10;99.90;;;;;;5073366;28;20020;-83
2024/02/06 09:21:22;;;;;;;4.43;2.72;;;-0.10;99.90;;;;;;5072135;28;20166;-81
2024/02/06 09:23:48;;;;;;;3.65;2.25;;;-0.10;99.90;;;;;;5072492;28;20016;-82
2024/02/06 09:26:15;;;;;;;5.22;3.30;;;0.00;99.90;;;;;;5072751;28;20478;-83
2024/02/06 09:28:42;;;;;;;7.15;3.30;;;0.00;99.90;;;;;;5074973;28;20025;-81
2024/02/06 09:31:08;;;;;;;5.57;3.30;;;0.00;99.90;;;;;;5084008;28;20036;-82
2024/02/06 09:33:34;;;;;;;4.55;3.33;;;0.00;99.90;;;;;;5081506;28;20029;-82
2024/02/06 09:36:02;;;;;;;4.07;2.65;;;0.00;99.90;;;;;;5072896;28;20092;-81
2024/02/06 09:38:28;;;;;;;;;;;0.00;99.90;;;;;;5072876;28;20024;-83
2024/02/06 09:40:54;;;;;;;7.15;2.60;;;0.00;99.90;;;;;;5072887;28;19931;-83
2024/02/06 09:43:21;;;;;;;8.95;2.70;;;0.00;99.90;;;;;;5072538;28;20020;-83
2024/02/06 09:45:48;;;;;;;7.05;2.90;;;0.00;99.90;;;;;;5062828;28;20044;-82
2024/02/06 09:48:14;;;;;;;5.30;2.83;;;0.00;99.90;;;;;;5074743;28;20033;-81
2024/02/06 09:50:40;;;;;;;5.55;2.60;;;0.00;99.90;;;;;;5088859;28;20109;-83
2024/02/06 09:53:09;;;;;;;8.70;3.33;;;0.00;99.90;;;;;;5075243;28;20365;-81
2024/02/06 09:55:40;;;;;;;8.55;3.75;;;0.10;99.90;;;;;;5073368;28;20032;-82
2024/02/06 09:58:11;;;;;;;6.03;2.80;;;0.00;99.90;;;;;;5071978;28;20024;-83
2024/02/06 10:00:37;;;;;;;4.82;2.70;;;0.00;99.90;;;;;;5071282;28;20397;-84
2024/02/06 10:03:31;;;;;;;4.68;2.47;;;0.10;99.90;;;;;;5072278;28;20020;-84
2024/02/06 10:06:02;;;;;;;4.50;2.15;;;0.10;99.90;;;;;;5071474;28;20036;-83
2024/02/06 10:08:28;;;;;;;3.33;2.40;;;0.10;99.90;;;;;;5070956;28;20046;-82
2024/02/06 10:10:57;;;;;;;4.93;2.70;;;0.10;99.90;;;;;;5072726;28;20043;-83
2024/02/06 10:13:23;;;;;;;5.45;2.75;;;0.10;99.90;;;;;;5072410;28;20025;-82
2024/02/06 10:15:50;;;;;;;7.03;2.92;;;0.10;99.90;;;;;;5075059;28;20028;-82
2024/02/06 10:18:16;;;;;;;4.07;2.70;;;0.10;99.90;;;;;;5077443;28;20029;-82
2024/02/06 10:20:46;;;;;;;7.70;3.30;;;0.20;99.90;;;;;;5076785;28;20442;-81
2024/02/06 10:23:14;;;;;;;4.05;2.15;;;0.10;99.90;;;;;;5076343;28;20028;-83
2024/02/06 10:25:40;;;;;;;3.85;2.45;;;0.10;99.90;;;;;;5062338;28;20078;-82
2024/02/06 10:28:09;;;;;;;6.32;2.50;;;0.20;99.90;;;;;;5076780;28;20032;-83
2024/02/06 10:30:35;;;;;;;3.92;2.17;;;0.10;99.90;;;;;;5076218;28;20481;-82
2024/02/06 10:33:14;;;;;;;6.07;3.28;;;0.10;99.90;;;;;;5069588;28;20025;-83
2024/02/06 10:35:40;;;;;;;4.25;2.47;;;0.10;99.90;;;;;;5075665;28;20565;-84
2024/02/06 10:38:14;;;;;;;9.13;2.47;;;0.10;99.90;;;;;;5083323;28;20036;-83
2024/02/06 10:40:41;;;;;;;4.28;2.10;;;0.20;99.90;;;;;;5077331;28;20130;-83
2024/02/06 10:43:07;;;;;;;6.78;1.92;;;0.20;99.90;;;;;;5076265;28;20155;-84
2024/02/06 10:45:34;;;;;;;4.97;2.75;;;0.10;99.90;;;;;;5076616;28;20098;-84
2024/02/06 10:48:00;;;;;;;5.65;2.75;;;0.10;99.90;;;;;;5077994;28;20024;-82
2024/02/06 10:50:26;;;;;;;8.63;3.90;;;0.10;99.90;;;;;;5077020;28;20098;-83
2024/02/06 10:52:53;;;;;;;5.90;3.35;;;0.20;99.90;;;;;;5079193;28;20348;-82
2024/02/06 10:55:21;;;;;;;3.60;2.45;;;0.20;99.90;;;;;;5076997;28;20024;-82
2024/02/06 10:57:47;;;;;;;10.75;3.00;;;0.20;99.90;;;;;;5078114;28;20029;-83
2024/02/06 11:00:20;;;;;;;8.55;2.92;;;0.20;99.90;;;;;;5077232;28;20478;-84
2024/02/06 11:02:52;;;;;;;4.80;1.83;;;0.20;99.90;;;;;;5076398;28;20029;-82
2024/02/06 11:05:42;;;;;;;3.67;2.38;;;0.10;99.90;;;;;;5078427;28;20039;-82
2024/02/06 11:08:12;;;;;;;6.47;2.50;;;0.10;99.90;;;;;;5079351;28;20080;-85
2024/02/06 11:10:52;;;;;;;5.57;2.75;;;0.20;99.90;;;;;;5078571;28;20537;-84
2024/02/06 11:13:46;;;;;;;1.65;1.20;;;0.20;99.90;;;;;;5077536;28;20432;-83
2024/02/06 11:16:16;;;;;;;6.32;1.98;;;0.20;99.90;;;;;;5075897;28;20072;-82
2024/02/06 11:19:17;;;;;;;3.35;2.15;;;0.00;99.90;;;;;;5078001;28;20051;-83
2024/02/06 11:21:48;;;;;;;4.90;2.42;;;-0.10;99.90;;;;;;5067887;28;20036;-84
2024/02/06 11:24:16;;;;;;;2.38;2.13;;;0.00;99.90;;;;;;5075282;28;20023;-83
2024/02/06 11:26:43;;;;;;;3.70;1.88;;;0.10;99.90;;;;;;5078074;28;20016;-84
2024/02/06 11:29:29;;;;;;;5.05;2.08;;;0.10;99.90;;;;;;5082572;28;20035;-83
2024/02/06 11:31:56;;;;;;;15.57;3.25;;;0.20;99.50;;;;;;5083193;28;20028;-82
2024/02/06 11:34:22;;;;;;;5.72;2.13;;;0.20;99.30;;;;;;5077185;28;20032;-83
2024/02/06 11:36:49;;;;;;;4.40;2.25;;;0.10;99.00;;;;;;5073475;28;20036;-83
2024/02/06 11:39:17;;;;;;;6.32;2.08;;;0.10;99.40;;;;;;5073194;28;20020;-83
2024/02/06 11:41:43;;;;;;;4.47;2.22;;;0.20;99.50;;;;;;5072900;28;20562;-82
2024/02/06 11:44:10;;;;;;;10.30;3.70;;;0.20;99.60;;;;;;5074823;28;20025;-83
2024/02/06 11:46:44;;;;;;;4.18;1.98;;;0.20;99.10;;;;;;5076412;28;20074;-82
2024/02/06 11:49:11;;;;;;;4.03;2.05;;;0.20;98.70;;;;;;5073814;28;20497;-83
2024/02/06 11:51:36;;;;;;;6.15;2.13;;;0.20;98.90;;;;;;5075002;28;20090;-81
2024/02/06 11:54:12;;;;;;;6.20;3.22;;;0.10;99.20;;;;;;5073100;28;20033;-84
2024/02/06 11:56:40;;;;;;;3.85;2.30;;;0.10;99.00;;;;;;5074343;28;20486;-84
2024/02/06 11:59:07;;;;;;;3.40;2.25;;;0.10;99.50;;;;;;5071884;28;20028;-82
2024/02/06 12:01:33;;;;;;;3.17;2.15;;;0.20;99.20;;;;;;5073287;28;20082;-80
2024/02/06 12:04:02;;;;;;;4.50;1.77;;;0.20;99.30;;;;;;5073317;28;20115;-82
2024/02/06 12:06:28;;;;;;;3.08;1.60;;;0.20;99.20;;;;;;5073111;28;20013;-83
2024/02/06 12:09:08;;;;;;;2.77;1.77;;;0.20;99.40;;;;;;5025153;28;1397387;-83
2024/02/06 12:11:46;;;;;;;3.15;1.35;;;0.20;98.80;;;;;;5074338;28;20028;-82
2024/02/06 12:14:15;;;;;;;2.42;1.38;;;0.20;99.00;;;;;;5074397;28;20104;-84
2024/02/06 12:16:44;;;;;;;8.80;2.03;;;0.10;99.30;;;;;;5072551;28;20036;-81
2024/02/06 12:19:10;;;;;;;7.55;1.92;;;0.10;99.50;;;;;;5074593;28;20024;-82
2024/02/06 12:21:36;;;;;;;5.25;1.70;;;0.00;98.90;;;;;;5073801;28;20060;-82
2024/02/06 12:24:04;;;;;;;1.77;1.27;;;0.00;98.70;;;;;;5073818;28;20017;-83
2024/02/06 12:26:31;;;;;;;2.00;1.38;;;0.00;98.80;;;;;;5073820;28;20028;-82
2024/02/06 12:29:07;;;;;;;3.58;1.80;;;0.10;98.80;;;;;;5072256;28;20504;-82
2024/02/06 12:31:37;;;;;;;4.07;1.48;;;0.10;98.60;;;;;;5072499;28;20036;-83
2024/02/06 12:34:07;;;;;;;4.22;1.25;;;0.10;98.40;;;;;;5073236;28;20020;-82
2024/02/06 12:36:34;;;;;;;2.78;1.50;;;0.00;98.00;;;;;;5055560;28;20024;-82
2024/02/06 12:39:12;;;;;;;1.25;1.15;;;0.00;98.00;;;;;;5072131;28;20053;-83
2024/02/06 12:41:39;;;;;;;2.65;1.40;;;-0.20;98.40;;;;;;5073525;28;20104;-84
2024/02/06 12:44:05;;;;;;;2.65;1.70;;;-0.20;99.00;;;;;;5073810;28;20024;-82
2024/02/06 12:46:31;;;;;;;2.50;1.63;;;-0.30;98.70;;;;;;5072537;28;20017;-82